Time,TemperatureF,DewpointF,PressureIn,WindDirection,WindDirectionDegrees,WindSpeedMPH,WindSpeedGustMPH,Humidity,HourlyPrecipIn,Conditions,Clouds,dailyrainin,SoftwareType,DateUTC
2013-10-29 00:02:00,34.0,15.8,31.62,SW,225,2.0,4.0,47,0.00,,,0.00,meteohub,2013-10-29 06:02:00,
2013-10-29 00:07:00,34.0,15.8,31.62,SW,225,2.0,4.0,47,0.00,,,0.00,meteohub,2013-10-29 06:07:00,
2013-10-29 00:12:00,34.5,16.3,31.62,NE,45,4.0,4.0,47,0.00,,,0.00,meteohub,2013-10-29 06:12:00,
2013-10-29 00:17:00,34.2,15.6,31.62,West,270,4.0,4.0,46,0.00,,,0.00,meteohub,2013-10-29 06:17:00,
2013-10-29 00:22:00,34.2,16.0,31.62,North,0,4.0,4.0,47,0.00,,,0.00,meteohub,2013-10-29 06:22:00,
2013-10-29 00:27:00,33.8,15.6,31.62,SE,135,4.0,4.0,47,0.00,,,0.00,meteohub,2013-10-29 06:27:00,
2013-10-29 00:32:00,34.2,16.0,31.61,NE,45,4.0,15.0,47,0.00,,,0.00,meteohub,2013-10-29 06:32:00,
2013-10-29 00:37:00,35.4,16.7,31.61,North,0,6.0,15.0,46,0.00,,,0.00,meteohub,2013-10-29 06:37:00,
2013-10-29 00:42:00,35.6,15.8,31.61,NW,315,2.0,15.0,44,0.00,,,0.00,meteohub,2013-10-29 06:42:00,
2013-10-29 00:47:00,35.8,15.4,31.61,North,0,8.0,15.0,43,0.00,,,0.00,meteohub,2013-10-29 06:47:00,
2013-10-29 00:52:00,36.7,15.8,31.62,SW,225,4.0,14.0,42,0.00,,,0.00,meteohub,2013-10-29 06:52:00,
2013-10-29 00:57:00,37.4,18.0,31.61,NE,45,5.0,14.0,45,0.00,,,0.00,meteohub,2013-10-29 06:57:00,
2013-10-29 01:02:00,37.4,18.0,31.61,West,270,8.0,14.0,45,0.00,,,0.00,meteohub,2013-10-29 07:02:00,
2013-10-29 01:07:00,36.5,15.6,31.61,NNE,23,8.0,10.0,42,0.00,,,0.00,meteohub,2013-10-29 07:07:00,
2013-10-29 01:12:00,35.6,15.8,31.62,NNW,338,4.0,10.0,44,0.00,,,0.00,meteohub,2013-10-29 07:12:00,
2013-10-29 01:17:00,34.9,16.7,31.61,North,0,4.0,10.0,47,0.00,,,0.00,meteohub,2013-10-29 07:17:00,
2013-10-29 01:22:00,34.5,17.8,31.62,NE,45,7.0,11.0,50,0.00,,,0.00,meteohub,2013-10-29 07:22:00,
2013-10-29 01:27:00,34.3,17.6,31.61,NE,45,2.0,11.0,50,0.00,,,0.00,meteohub,2013-10-29 07:27:00,
2013-10-29 01:32:00,34.3,17.6,31.62,NE,45,2.0,11.0,50,0.00,,,0.00,meteohub,2013-10-29 07:32:00,
2013-10-29 01:37:00,34.3,17.2,31.62,East,90,2.0,11.0,49,0.00,,,0.00,meteohub,2013-10-29 07:37:00,
2013-10-29 01:42:00,34.2,17.4,31.62,NE,45,7.0,11.0,50,0.00,,,0.00,meteohub,2013-10-29 07:42:00,
2013-10-29 01:47:00,33.8,18.0,31.62,SE,135,2.0,8.0,52,0.00,,,0.00,meteohub,2013-10-29 07:47:00,
2013-10-29 01:52:00,33.4,18.1,31.62,East,90,1.0,10.0,53,0.00,,,0.00,meteohub,2013-10-29 07:52:00,
2013-10-29 01:57:00,33.6,18.3,31.62,NE,45,6.0,10.0,53,0.00,,,0.00,meteohub,2013-10-29 07:57:00,
2013-10-29 02:02:00,33.6,18.3,31.62,North,0,2.0,12.0,53,0.00,,,0.00,meteohub,2013-10-29 08:02:00,
2013-10-29 02:07:00,33.6,18.3,31.62,North,0,2.0,12.0,53,0.00,,,0.00,meteohub,2013-10-29 08:07:00,
2013-10-29 02:12:00,33.1,19.0,31.62,NE,45,6.0,11.0,56,0.00,,,0.00,meteohub,2013-10-29 08:12:00,
2013-10-29 02:17:00,32.7,18.7,31.62,SW,225,3.0,11.0,56,0.00,,,0.00,meteohub,2013-10-29 08:17:00,
2013-10-29 02:22:00,32.5,18.5,31.62,North,0,1.0,11.0,56,0.00,,,0.00,meteohub,2013-10-29 08:22:00,
2013-10-29 02:27:00,32.4,18.9,31.62,North,0,4.0,8.0,57,0.00,,,0.00,meteohub,2013-10-29 08:27:00,
2013-10-29 02:32:00,32.2,18.7,31.62,East,90,4.0,8.0,57,0.00,,,0.00,meteohub,2013-10-29 08:32:00,
2013-10-29 02:37:00,32.0,18.5,31.62,NE,45,4.0,8.0,57,0.00,,,0.00,meteohub,2013-10-29 08:37:00,
2013-10-29 02:42:00,31.8,19.0,31.62,NE,45,5.0,7.0,59,0.00,,,0.00,meteohub,2013-10-29 08:42:00,
2013-10-29 02:47:00,31.6,19.0,31.62,North,0,3.0,8.0,59,0.00,,,0.00,meteohub,2013-10-29 08:47:00,
2013-10-29 02:52:00,31.5,18.9,31.62,North,0,2.0,8.0,59,0.00,,,0.00,meteohub,2013-10-29 08:52:00,
2013-10-29 02:57:00,31.5,18.9,31.62,North,0,5.0,6.0,59,0.00,,,0.00,meteohub,2013-10-29 08:57:00,
2013-10-29 03:02:00,31.3,19.0,31.62,NE,45,2.0,6.0,60,0.00,,,0.00,meteohub,2013-10-29 09:02:00,
2013-10-29 03:07:00,31.3,19.0,31.62,SE,135,3.0,6.0,60,0.00,,,0.00,meteohub,2013-10-29 09:07:00,
2013-10-29 03:12:00,31.3,18.7,31.62,West,270,3.0,6.0,59,0.00,,,0.00,meteohub,2013-10-29 09:12:00,
2013-10-29 03:17:00,32.2,18.7,31.62,South,180,2.0,11.0,57,0.00,,,0.00,meteohub,2013-10-29 09:17:00,
2013-10-29 03:22:00,31.8,18.3,31.62,SE,135,2.0,11.0,57,0.00,,,0.00,meteohub,2013-10-29 09:22:00,
2013-10-29 03:27:00,31.8,18.3,31.62,SSW,203,7.0,11.0,57,0.00,,,0.00,meteohub,2013-10-29 09:27:00,
2013-10-29 03:32:00,32.2,18.3,31.62,East,90,2.0,8.0,56,0.00,,,0.00,meteohub,2013-10-29 09:32:00,
2013-10-29 03:37:00,32.4,18.0,31.62,South,180,4.0,8.0,55,0.00,,,0.00,meteohub,2013-10-29 09:37:00,
2013-10-29 03:42:00,32.5,17.8,31.61,SE,135,5.0,11.0,54,0.00,,,0.00,meteohub,2013-10-29 09:42:00,
2013-10-29 03:47:00,32.5,17.8,31.62,East,90,8.0,11.0,54,0.00,,,0.00,meteohub,2013-10-29 09:47:00,
2013-10-29 03:52:00,32.7,18.0,31.61,SE,135,11.0,11.0,54,0.00,,,0.00,meteohub,2013-10-29 09:52:00,
2013-10-29 03:57:00,32.7,18.0,31.61,SE,135,3.0,11.0,54,0.00,,,0.00,meteohub,2013-10-29 09:57:00,
2013-10-29 04:02:00,32.7,18.0,31.61,South,180,6.0,11.0,54,0.00,,,0.00,meteohub,2013-10-29 10:02:00,
2013-10-29 04:07:00,32.7,18.0,31.61,South,180,6.0,11.0,54,0.00,,,0.00,meteohub,2013-10-29 10:07:00,
2013-10-29 04:12:00,32.7,18.3,31.61,NE,45,10.0,10.0,55,0.00,,,0.00,meteohub,2013-10-29 10:12:00,
2013-10-29 04:17:00,32.4,18.9,31.61,SSE,158,6.0,11.0,57,0.00,,,0.00,meteohub,2013-10-29 10:17:00,
2013-10-29 04:22:00,32.2,19.0,31.61,SE,135,3.0,11.0,58,0.00,,,0.00,meteohub,2013-10-29 10:22:00,
2013-10-29 04:27:00,32.0,19.8,31.60,North,0,4.0,11.0,60,0.00,,,0.00,meteohub,2013-10-29 10:27:00,
2013-10-29 04:32:00,31.8,20.3,31.61,East,90,8.0,11.0,62,0.00,,,0.00,meteohub,2013-10-29 10:32:00,
2013-10-29 04:37:00,31.6,20.5,31.60,East,90,4.0,13.0,63,0.00,,,0.00,meteohub,2013-10-29 10:37:00,
2013-10-29 04:42:00,31.3,20.5,31.60,South,180,5.0,13.0,64,0.00,,,0.00,meteohub,2013-10-29 10:42:00,
2013-10-29 04:47:00,31.1,19.9,31.60,East,90,5.0,13.0,63,0.00,,,0.00,meteohub,2013-10-29 10:47:00,
2013-10-29 04:52:00,31.1,20.3,31.60,SE,135,6.0,14.0,64,0.00,,,0.00,meteohub,2013-10-29 10:52:00,
2013-10-29 04:57:00,31.1,19.9,31.60,South,180,2.0,14.0,63,0.00,,,0.00,meteohub,2013-10-29 10:57:00,
2013-10-29 05:02:00,31.1,19.9,31.60,East,90,4.0,14.0,63,0.00,,,0.00,meteohub,2013-10-29 11:02:00,
2013-10-29 05:07:00,30.9,19.8,31.60,ESE,113,5.0,11.0,63,0.00,,,0.00,meteohub,2013-10-29 11:07:00,
2013-10-29 05:12:00,30.9,20.1,31.60,South,180,7.0,8.0,64,0.00,,,0.00,meteohub,2013-10-29 11:12:00,
2013-10-29 05:17:00,30.7,19.6,31.60,North,0,7.0,8.0,63,0.00,,,0.00,meteohub,2013-10-29 11:17:00,
2013-10-29 05:22:00,30.9,19.8,31.61,East,90,7.0,13.0,63,0.00,,,0.00,meteohub,2013-10-29 11:22:00,
2013-10-29 05:27:00,31.1,20.3,31.60,SSE,158,6.0,13.0,64,0.00,,,0.00,meteohub,2013-10-29 11:27:00,
2013-10-29 05:32:00,30.9,19.8,31.60,North,0,4.0,13.0,63,0.00,,,0.00,meteohub,2013-10-29 11:32:00,
2013-10-29 05:37:00,30.6,19.4,31.60,North,0,5.0,8.0,63,0.00,,,0.00,meteohub,2013-10-29 11:37:00,
2013-10-29 05:42:00,30.7,19.9,31.60,ENE,68,11.0,11.0,64,0.00,,,0.00,meteohub,2013-10-29 11:42:00,
2013-10-29 05:47:00,30.4,19.6,31.60,East,90,5.0,11.0,64,0.00,,,0.00,meteohub,2013-10-29 11:47:00,
2013-10-29 05:52:00,30.4,19.6,31.60,NE,45,8.0,11.0,64,0.00,,,0.00,meteohub,2013-10-29 11:52:00,
2013-10-29 05:57:00,30.4,19.6,31.60,North,0,6.0,11.0,64,0.00,,,0.00,meteohub,2013-10-29 11:57:00,
2013-10-29 06:02:00,30.2,19.6,31.60,South,180,2.0,11.0,64,0.00,,,0.00,meteohub,2013-10-29 12:02:00,
2013-10-29 06:07:00,30.2,19.6,31.60,South,180,2.0,11.0,64,0.00,,,0.00,meteohub,2013-10-29 12:07:00,
2013-10-29 06:12:00,30.9,19.4,31.60,SE,135,6.0,8.0,62,0.00,,,0.00,meteohub,2013-10-29 12:12:00,
2013-10-29 06:17:00,31.3,19.4,31.60,East,90,5.0,8.0,61,0.00,,,0.00,meteohub,2013-10-29 12:17:00,
2013-10-29 06:22:00,31.3,19.4,31.60,NE,45,6.0,11.0,61,0.00,,,0.00,meteohub,2013-10-29 12:22:00,
2013-10-29 06:27:00,31.3,19.4,31.60,SE,135,7.0,14.0,61,0.00,,,0.00,meteohub,2013-10-29 12:27:00,
2013-10-29 06:32:00,31.6,19.4,31.60,East,90,6.0,14.0,60,0.00,,,0.00,meteohub,2013-10-29 12:32:00,
2013-10-29 06:37:00,31.3,19.0,31.60,SE,135,10.0,10.0,60,0.00,,,0.00,meteohub,2013-10-29 12:37:00,
2013-10-29 06:42:00,31.3,19.4,31.60,North,0,4.0,10.0,61,0.00,,,0.00,meteohub,2013-10-29 12:42:00,
2013-10-29 06:47:00,31.1,19.2,31.61,SE,135,8.0,10.0,61,0.00,,,0.00,meteohub,2013-10-29 12:47:00,
2013-10-29 06:52:00,31.6,19.4,31.60,South,180,8.0,15.0,60,0.00,,,0.00,meteohub,2013-10-29 12:52:00,
2013-10-29 06:57:00,31.8,19.0,31.60,SE,135,4.0,15.0,59,0.00,,,0.00,meteohub,2013-10-29 12:57:00,
2013-10-29 07:02:00,31.6,19.0,31.60,SE,135,9.0,15.0,59,0.00,,,0.00,meteohub,2013-10-29 13:02:00,
2013-10-29 07:07:00,31.5,18.9,31.60,East,90,2.0,9.0,59,0.00,,,0.00,meteohub,2013-10-29 13:07:00,
2013-10-29 07:12:00,31.1,18.5,31.60,East,90,5.0,9.0,59,0.00,,,0.00,meteohub,2013-10-29 13:12:00,
2013-10-29 07:17:00,30.6,18.3,31.60,NE,45,4.0,9.0,60,0.00,,,0.00,meteohub,2013-10-29 13:17:00,
2013-10-29 07:22:00,30.2,18.0,31.60,North,0,4.0,8.0,60,0.00,,,0.00,meteohub,2013-10-29 13:22:00,
2013-10-29 07:27:00,30.0,18.5,31.60,NW,315,3.0,9.0,62,0.00,,,0.00,meteohub,2013-10-29 13:27:00,
2013-10-29 07:32:00,29.8,18.5,31.60,West,270,3.0,9.0,62,0.00,,,0.00,meteohub,2013-10-29 13:32:00,
2013-10-29 07:37:00,29.8,18.9,31.60,NE,45,4.0,9.0,63,0.00,,,0.00,meteohub,2013-10-29 13:37:00,
2013-10-29 07:42:00,29.8,19.2,31.60,West,270,5.0,10.0,64,0.00,,,0.00,meteohub,2013-10-29 13:42:00,
2013-10-29 07:47:00,30.0,19.8,31.60,NW,315,5.0,10.0,65,0.00,,,0.00,meteohub,2013-10-29 13:47:00,
2013-10-29 07:52:00,30.0,19.4,31.60,East,90,4.0,10.0,64,0.00,,,0.00,meteohub,2013-10-29 13:52:00,
2013-10-29 07:57:00,30.6,19.0,31.60,West,270,7.0,9.0,62,0.00,,,0.00,meteohub,2013-10-29 13:57:00,
2013-10-29 08:02:00,30.9,19.0,31.60,East,90,5.0,8.0,61,0.00,,,0.00,meteohub,2013-10-29 14:02:00,
2013-10-29 08:07:00,31.6,19.0,31.60,NW,315,4.0,8.0,59,0.00,,,0.00,meteohub,2013-10-29 14:07:00,
2013-10-29 08:13:00,31.1,18.5,31.60,NE,45,5.0,8.0,59,0.00,,,0.00,meteohub,2013-10-29 14:13:00,
2013-10-29 08:18:00,30.9,18.3,31.61,NE,45,2.0,5.0,59,0.00,,,0.00,meteohub,2013-10-29 14:18:00,
2013-10-29 08:23:00,30.9,18.7,31.61,NE,45,7.0,7.0,60,0.00,,,0.00,meteohub,2013-10-29 14:23:00,
2013-10-29 08:28:00,31.5,19.2,31.61,East,90,2.0,8.0,60,0.00,,,0.00,meteohub,2013-10-29 14:28:00,
2013-10-29 08:33:00,31.5,18.9,31.61,NE,45,7.0,8.0,59,0.00,,,0.00,meteohub,2013-10-29 14:33:00,
2013-10-29 08:39:00,31.5,18.9,31.61,NW,315,4.0,8.0,59,0.00,,,0.00,meteohub,2013-10-29 14:39:00,
2013-10-29 08:44:00,31.5,18.9,31.62,West,270,2.0,7.0,59,0.00,,,0.00,meteohub,2013-10-29 14:44:00,
2013-10-29 08:49:00,31.5,18.9,31.62,North,0,4.0,7.0,59,0.00,,,0.00,meteohub,2013-10-29 14:49:00,
2013-10-29 08:54:00,32.2,18.3,31.61,North,0,1.0,7.0,56,0.00,,,0.00,meteohub,2013-10-29 14:54:00,
2013-10-29 08:59:00,33.8,18.5,31.61,ENE,68,5.0,7.0,53,0.00,,,0.00,meteohub,2013-10-29 14:59:00,
2013-10-29 09:04:00,34.9,19.0,31.61,NW,315,2.0,8.0,52,0.00,,,0.00,meteohub,2013-10-29 15:04:00,
2013-10-29 09:10:00,35.6,19.2,31.61,South,180,11.0,11.0,51,0.00,,,0.00,meteohub,2013-10-29 15:10:00,
2013-10-29 09:15:00,36.3,19.0,31.61,NE,45,8.0,11.0,49,0.00,,,0.00,meteohub,2013-10-29 15:15:00,
2013-10-29 09:20:00,37.2,18.9,31.61,West,270,7.0,11.0,47,0.00,,,0.00,meteohub,2013-10-29 15:20:00,
2013-10-29 09:25:00,38.1,21.2,31.61,West,270,5.0,8.0,50,0.00,,,0.00,meteohub,2013-10-29 15:25:00,
2013-10-29 09:30:00,38.7,21.2,31.61,SW,225,8.0,11.0,49,0.00,,,0.00,meteohub,2013-10-29 15:30:00,
2013-10-29 09:35:00,39.2,20.1,31.61,NE,45,7.0,11.0,46,0.00,,,0.00,meteohub,2013-10-29 15:35:00,
2013-10-29 09:41:00,39.7,20.1,31.61,SE,135,5.0,11.0,45,0.00,,,0.00,meteohub,2013-10-29 15:41:00,
2013-10-29 09:46:00,40.1,20.5,31.62,South,180,12.0,12.0,45,0.00,,,0.00,meteohub,2013-10-29 15:46:00,
2013-10-29 09:51:00,39.7,20.1,31.61,SE,135,14.0,14.0,45,0.00,,,0.00,meteohub,2013-10-29 15:51:00,
2013-10-29 09:56:00,39.2,19.6,31.61,East,90,8.0,14.0,45,0.00,,,0.00,meteohub,2013-10-29 15:56:00,
2013-10-29 10:01:00,39.6,19.9,31.61,South,180,4.0,14.0,45,0.00,,,0.00,meteohub,2013-10-29 16:01:00,
2013-10-29 10:06:00,39.6,19.9,31.61,South,180,4.0,14.0,45,0.00,,,0.00,meteohub,2013-10-29 16:06:00,
2013-10-29 10:12:00,39.4,19.2,31.61,SE,135,8.0,12.0,44,0.00,,,0.00,meteohub,2013-10-29 16:12:00,
2013-10-29 10:17:00,38.3,18.9,31.61,SE,135,5.0,12.0,45,0.00,,,0.00,meteohub,2013-10-29 16:17:00,
2013-10-29 10:22:00,38.5,19.6,31.61,East,90,7.0,12.0,46,0.00,,,0.00,meteohub,2013-10-29 16:22:00,
2013-10-29 10:27:00,39.4,19.2,31.60,South,180,6.0,11.0,44,0.00,,,0.00,meteohub,2013-10-29 16:27:00,
2013-10-29 10:32:00,39.0,17.8,31.61,SE,135,6.0,11.0,42,0.00,,,0.00,meteohub,2013-10-29 16:32:00,
2013-10-29 10:37:00,39.4,17.6,31.60,SW,225,11.0,11.0,41,0.00,,,0.00,meteohub,2013-10-29 16:37:00,
2013-10-29 10:42:00,39.7,18.0,31.60,NE,45,9.0,12.0,41,0.00,,,0.00,meteohub,2013-10-29 16:42:00,
2013-10-29 10:47:00,41.2,17.4,31.60,SE,135,8.0,14.0,38,0.00,,,0.00,meteohub,2013-10-29 16:47:00,
2013-10-29 10:52:00,41.7,16.7,31.60,SE,135,4.0,14.0,36,0.00,,,0.00,meteohub,2013-10-29 16:52:00,
2013-10-29 10:57:00,42.1,17.1,31.60,South,180,4.0,14.0,36,0.00,,,0.00,meteohub,2013-10-29 16:57:00,
2013-10-29 11:02:00,42.8,15.6,31.60,East,90,5.0,11.0,33,0.00,,,0.00,meteohub,2013-10-29 17:02:00,
2013-10-29 11:07:00,42.4,15.4,31.60,SSE,158,6.0,7.0,33,0.00,,,0.00,meteohub,2013-10-29 17:07:00,
2013-10-29 11:12:00,42.1,12.0,31.59,ESE,113,9.0,9.0,29,0.00,,,0.00,meteohub,2013-10-29 17:12:00,
2013-10-29 11:17:00,42.1,12.0,31.60,SW,225,9.0,12.0,29,0.00,,,0.00,meteohub,2013-10-29 17:17:00,
2013-10-29 11:22:00,42.1,11.3,31.60,South,180,6.0,16.0,28,0.00,,,0.00,meteohub,2013-10-29 17:22:00,
2013-10-29 11:27:00,41.7,9.3,31.60,SE,135,9.0,16.0,26,0.00,,,0.00,meteohub,2013-10-29 17:27:00,
2013-10-29 11:32:00,41.5,9.1,31.60,NW,315,6.0,16.0,26,0.00,,,0.00,meteohub,2013-10-29 17:32:00,
2013-10-29 11:37:00,41.4,9.0,31.60,East,90,8.0,15.0,26,0.00,,,0.00,meteohub,2013-10-29 17:37:00,
2013-10-29 11:42:00,41.7,10.2,31.60,SE,135,4.0,15.0,27,0.00,,,0.00,meteohub,2013-10-29 17:42:00,
2013-10-29 11:47:00,42.4,10.8,31.59,SW,225,6.0,15.0,27,0.00,,,0.00,meteohub,2013-10-29 17:47:00,
2013-10-29 11:52:00,42.6,10.9,31.60,SE,135,2.0,15.0,27,0.00,,,0.00,meteohub,2013-10-29 17:52:00,
2013-10-29 11:57:00,42.6,10.0,31.60,East,90,10.0,15.0,26,0.00,,,0.00,meteohub,2013-10-29 17:57:00,
2013-10-29 12:02:00,42.4,10.0,31.60,East,90,8.0,15.0,26,0.00,,,0.00,meteohub,2013-10-29 18:02:00,
2013-10-29 12:07:00,42.4,10.0,31.60,East,90,8.0,15.0,26,0.00,,,0.00,meteohub,2013-10-29 18:07:00,
2013-10-29 12:12:00,41.0,11.8,31.60,South,180,11.0,18.0,30,0.00,,,0.00,meteohub,2013-10-29 18:12:00,
2013-10-29 12:17:00,40.6,14.5,31.60,South,180,10.0,18.0,34,0.00,,,0.00,meteohub,2013-10-29 18:17:00,
2013-10-29 12:22:00,40.6,15.1,31.60,SE,135,4.0,18.0,35,0.00,,,0.00,meteohub,2013-10-29 18:22:00,
2013-10-29 12:27:00,41.0,14.7,31.60,South,180,6.0,11.0,34,0.00,,,0.00,meteohub,2013-10-29 18:27:00,
2013-10-29 12:32:00,41.2,14.9,31.59,SSW,203,4.0,11.0,34,0.00,,,0.00,meteohub,2013-10-29 18:32:00,
2013-10-29 12:37:00,41.0,14.7,31.59,SE,135,3.0,8.0,34,0.00,,,0.00,meteohub,2013-10-29 18:37:00,
2013-10-29 12:42:00,41.0,14.7,31.59,SW,225,4.0,7.0,34,0.00,,,0.00,meteohub,2013-10-29 18:42:00,
2013-10-29 12:47:00,40.8,15.3,31.59,East,90,8.0,8.0,35,0.00,,,0.00,meteohub,2013-10-29 18:47:00,
2013-10-29 12:52:00,40.1,16.5,31.59,SE,135,4.0,8.0,38,0.00,,,0.00,meteohub,2013-10-29 18:52:00,
2013-10-29 12:57:00,39.6,17.2,31.59,South,180,3.0,8.0,40,0.00,,,0.00,meteohub,2013-10-29 18:57:00,
2013-10-29 13:02:00,39.7,18.0,31.59,South,180,4.0,9.0,41,0.00,,,0.00,meteohub,2013-10-29 19:02:00,
2013-10-29 13:07:00,39.7,18.0,31.59,SSW,203,4.0,9.0,41,0.00,,,0.00,meteohub,2013-10-29 19:07:00,
2013-10-29 13:12:00,39.7,19.6,31.58,West,270,4.0,7.0,44,0.00,,,0.00,meteohub,2013-10-29 19:12:00,
2013-10-29 13:17:00,39.6,19.9,31.58,SW,225,4.0,7.0,45,0.00,,,0.00,meteohub,2013-10-29 19:17:00,
2013-10-29 13:22:00,39.6,19.9,31.58,SW,225,4.0,7.0,45,0.00,,,0.00,meteohub,2013-10-29 19:22:00,
2013-10-29 13:27:00,39.9,20.3,31.57,SE,135,2.0,8.0,45,0.00,,,0.00,meteohub,2013-10-29 19:27:00,
2013-10-29 13:32:00,40.1,20.5,31.57,SW,225,4.0,8.0,45,0.00,,,0.00,meteohub,2013-10-29 19:32:00,
2013-10-29 13:37:00,40.3,20.1,31.57,West,270,8.0,8.0,44,0.00,,,0.00,meteohub,2013-10-29 19:37:00,
2013-10-29 13:42:00,40.1,19.9,31.57,SW,225,4.0,10.0,44,0.00,,,0.00,meteohub,2013-10-29 19:42:00,
2013-10-29 13:47:00,40.3,20.1,31.57,West,270,4.0,10.0,44,0.00,,,0.00,meteohub,2013-10-29 19:47:00,
2013-10-29 13:52:00,40.6,20.5,31.57,South,180,3.0,10.0,44,0.00,,,0.00,meteohub,2013-10-29 19:52:00,
2013-10-29 13:57:00,40.6,20.5,31.57,East,90,9.0,9.0,44,0.00,,,0.00,meteohub,2013-10-29 19:57:00,
2013-10-29 14:02:00,40.6,20.5,31.57,South,180,9.0,15.0,44,0.00,,,0.00,meteohub,2013-10-29 20:02:00,
2013-10-29 14:07:00,40.6,20.5,31.57,South,180,9.0,15.0,44,0.00,,,0.00,meteohub,2013-10-29 20:07:00,
2013-10-29 14:12:00,40.5,20.3,31.57,SW,225,4.0,10.0,44,0.00,,,0.00,meteohub,2013-10-29 20:12:00,
2013-10-29 14:17:00,40.3,20.7,31.57,East,90,2.0,9.0,45,0.00,,,0.00,meteohub,2013-10-29 20:17:00,
2013-10-29 14:22:00,39.9,20.8,31.58,West,270,2.0,9.0,46,0.00,,,0.00,meteohub,2013-10-29 20:22:00,
2013-10-29 14:27:00,39.4,21.4,31.57,SE,135,4.0,9.0,48,0.00,,,0.00,meteohub,2013-10-29 20:27:00,
2013-10-29 14:32:00,38.5,21.9,31.57,North,0,1.0,8.0,51,0.00,,,0.00,meteohub,2013-10-29 20:32:00,
2013-10-29 14:37:00,38.1,22.1,31.57,SW,225,4.0,8.0,52,0.00,,,0.00,meteohub,2013-10-29 20:37:00,
2013-10-29 14:42:00,37.9,21.4,31.57,East,90,8.0,8.0,51,0.00,,,0.00,meteohub,2013-10-29 20:42:00,
2013-10-29 14:47:00,37.0,20.7,31.58,NE,45,8.0,12.0,51,0.00,,,0.00,meteohub,2013-10-29 20:47:00,
2013-10-29 14:52:00,35.8,22.1,31.58,SE,135,6.0,14.0,57,0.00,,,0.00,meteohub,2013-10-29 20:52:00,
2013-10-29 14:57:00,35.4,22.5,31.58,SE,135,4.0,14.0,59,0.00,,,0.00,meteohub,2013-10-29 20:57:00,
2013-10-29 15:02:00,35.4,22.5,31.58,SW,225,2.0,14.0,59,0.00,,,0.00,meteohub,2013-10-29 21:02:00,
2013-10-29 15:07:00,35.4,23.4,31.58,South,180,2.0,8.0,61,0.00,,,0.00,meteohub,2013-10-29 21:07:00,
2013-10-29 15:12:00,35.6,23.5,31.58,SW,225,2.0,6.0,61,0.00,,,0.00,meteohub,2013-10-29 21:12:00,
2013-10-29 15:17:00,35.6,23.5,31.58,SW,225,3.0,4.0,61,0.00,,,0.00,meteohub,2013-10-29 21:17:00,
2013-10-29 15:22:00,35.6,23.5,31.59,SW,225,5.0,6.0,61,0.00,,,0.00,meteohub,2013-10-29 21:22:00,
2013-10-29 15:27:00,35.2,23.5,31.59,SW,225,2.0,6.0,62,0.00,,,0.00,meteohub,2013-10-29 21:27:00,
2013-10-29 15:32:00,34.9,23.5,31.59,SW,225,3.0,6.0,63,0.00,,,0.00,meteohub,2013-10-29 21:32:00,
2013-10-29 15:37:00,34.7,23.7,31.58,SW,225,6.0,6.0,64,0.00,,,0.00,meteohub,2013-10-29 21:37:00,
2013-10-29 15:42:00,34.5,23.9,31.58,SW,225,3.0,6.0,65,0.00,,,0.00,meteohub,2013-10-29 21:42:00,
2013-10-29 15:47:00,34.5,24.3,31.58,West,270,3.0,6.0,66,0.00,,,0.00,meteohub,2013-10-29 21:47:00,
2013-10-29 15:52:00,34.5,24.3,31.58,SW,225,4.0,6.0,66,0.00,,,0.00,meteohub,2013-10-29 21:52:00,
2013-10-29 15:57:00,34.3,24.4,31.59,SE,135,4.0,6.0,67,0.00,,,0.00,meteohub,2013-10-29 21:57:00,
2013-10-29 16:02:00,34.2,24.6,31.58,SSE,158,4.0,4.0,68,0.00,,,0.00,meteohub,2013-10-29 22:02:00,
2013-10-29 16:07:00,34.2,24.6,31.58,SSE,158,4.0,4.0,68,0.00,,,0.00,meteohub,2013-10-29 22:07:00,
2013-10-29 16:12:00,33.8,25.3,31.58,SW,225,2.0,4.0,71,0.00,,,0.00,meteohub,2013-10-29 22:12:00,
2013-10-29 16:17:00,33.4,25.7,31.58,South,180,2.0,4.0,73,0.00,,,0.00,meteohub,2013-10-29 22:17:00,
2013-10-29 16:22:00,33.3,25.9,31.59,SE,135,4.0,4.0,74,0.00,,,0.00,meteohub,2013-10-29 22:22:00,
2013-10-29 16:27:00,33.3,25.9,31.58,SW,225,3.0,4.0,74,0.00,,,0.00,meteohub,2013-10-29 22:27:00,
2013-10-29 16:32:00,33.3,26.2,31.59,SW,225,3.0,4.0,75,0.00,,,0.00,meteohub,2013-10-29 22:32:00,
2013-10-29 16:37:00,33.1,26.1,31.58,SE,135,3.0,4.0,75,0.00,,,0.00,meteohub,2013-10-29 22:37:00,
2013-10-29 16:42:00,33.1,26.4,31.58,SE,135,3.0,3.0,76,0.00,,,0.00,meteohub,2013-10-29 22:42:00,
2013-10-29 16:47:00,33.1,26.6,31.59,SE,135,3.0,3.0,77,0.00,,,0.00,meteohub,2013-10-29 22:47:00,
2013-10-29 16:52:00,32.9,26.8,31.59,SW,225,1.0,4.0,78,0.00,,,0.00,meteohub,2013-10-29 22:52:00,
2013-10-29 16:57:00,32.9,27.1,31.58,East,90,2.0,4.0,79,0.00,,,0.00,meteohub,2013-10-29 22:57:00,
2013-10-29 17:02:00,33.1,27.3,31.59,South,180,2.0,5.0,79,0.00,,,0.00,meteohub,2013-10-29 23:02:00,
2013-10-29 17:07:00,33.1,27.3,31.58,South,180,1.0,5.0,79,0.00,,,0.00,meteohub,2013-10-29 23:07:00,
2013-10-29 17:12:00,32.9,27.1,31.58,SE,135,2.0,3.0,79,0.00,,,0.00,meteohub,2013-10-29 23:12:00,
2013-10-29 17:17:00,32.7,27.0,31.59,SE,135,2.0,3.0,79,0.00,,,0.00,meteohub,2013-10-29 23:17:00,
2013-10-29 17:22:00,32.7,27.0,31.58,South,180,2.0,2.0,79,0.00,,,0.00,meteohub,2013-10-29 23:22:00,
2013-10-29 17:27:00,32.7,27.0,31.58,SE,135,2.0,2.0,79,0.00,,,0.00,meteohub,2013-10-29 23:27:00,
2013-10-29 17:32:00,32.5,26.8,31.58,SE,135,2.0,2.0,79,0.00,,,0.00,meteohub,2013-10-29 23:32:00,
2013-10-29 17:37:00,32.5,26.8,31.58,South,180,2.0,2.0,79,0.00,,,0.00,meteohub,2013-10-29 23:37:00,
2013-10-29 17:42:00,32.5,26.8,31.58,SE,135,2.0,2.0,79,0.00,,,0.00,meteohub,2013-10-29 23:42:00,
2013-10-29 17:47:00,32.5,26.8,31.58,SE,135,2.0,2.0,79,0.00,,,0.00,meteohub,2013-10-29 23:47:00,
2013-10-29 17:52:00,32.5,26.8,31.58,South,180,2.0,2.0,79,0.00,,,0.00,meteohub,2013-10-29 23:52:00,
2013-10-29 17:57:00,32.4,26.6,31.58,SE,135,2.0,2.0,79,0.00,,,0.00,meteohub,2013-10-29 23:57:00,
2013-10-29 18:02:00,32.4,26.6,31.58,SE,135,0.0,2.0,79,0.00,,,0.00,meteohub,2013-10-30 00:02:00,
2013-10-29 18:07:00,32.4,26.6,31.57,SE,135,0.0,2.0,79,0.00,,,0.00,meteohub,2013-10-30 00:07:00,
2013-10-29 18:12:00,32.2,26.8,31.57,East,90,2.0,2.0,80,0.00,,,0.00,meteohub,2013-10-30 00:12:00,
2013-10-29 18:17:00,32.0,26.6,31.57,SE,135,2.0,2.0,80,0.00,,,0.00,meteohub,2013-10-30 00:17:00,
2013-10-29 18:22:00,32.0,26.8,31.57,SE,135,1.0,2.0,81,0.00,,,0.00,meteohub,2013-10-30 00:22:00,
2013-10-29 18:27:00,32.0,26.8,31.58,South,180,0.0,2.0,81,0.00,,,0.00,meteohub,2013-10-30 00:27:00,
2013-10-29 18:32:00,32.0,26.8,31.58,South,180,3.0,3.0,81,0.00,,,0.00,meteohub,2013-10-30 00:32:00,
2013-10-29 18:37:00,32.0,27.1,31.57,South,180,2.0,3.0,82,0.00,,,0.00,meteohub,2013-10-30 00:37:00,
2013-10-29 18:42:00,32.2,27.3,31.57,SW,225,2.0,3.0,82,0.00,,,0.00,meteohub,2013-10-30 00:42:00,
2013-10-29 18:47:00,32.0,27.1,31.57,SE,135,1.0,3.0,82,0.00,,,0.00,meteohub,2013-10-30 00:47:00,
2013-10-29 18:52:00,32.0,27.1,31.57,SE,135,1.0,2.0,82,0.00,,,0.00,meteohub,2013-10-30 00:52:00,
2013-10-29 18:57:00,32.0,27.1,31.57,SE,135,0.0,2.0,82,0.00,,,0.00,meteohub,2013-10-30 00:57:00,
2013-10-29 19:02:00,31.8,27.3,31.57,West,270,2.0,2.0,83,0.00,,,0.00,meteohub,2013-10-30 01:02:00,
2013-10-29 19:07:00,31.8,27.3,31.57,West,270,0.0,2.0,83,0.00,,,0.00,meteohub,2013-10-30 01:07:00,
2013-10-29 19:12:00,31.6,27.1,31.57,SW,225,0.0,2.0,83,0.00,,,0.00,meteohub,2013-10-30 01:12:00,
2013-10-29 19:17:00,31.6,27.1,31.57,SW,225,2.0,2.0,83,0.00,,,0.00,meteohub,2013-10-30 01:17:00,
2013-10-29 19:22:00,31.6,27.1,31.57,SW,225,0.0,2.0,83,0.00,,,0.00,meteohub,2013-10-30 01:22:00,
2013-10-29 19:27:00,31.6,27.1,31.57,East,90,1.0,2.0,83,0.00,,,0.00,meteohub,2013-10-30 01:27:00,
2013-10-29 19:32:00,31.5,27.0,31.57,South,180,2.0,2.0,83,0.00,,,0.00,meteohub,2013-10-30 01:32:00,
2013-10-29 19:37:00,31.5,27.0,31.57,SE,135,2.0,2.0,83,0.00,,,0.00,meteohub,2013-10-30 01:37:00,
2013-10-29 19:42:00,31.6,27.1,31.57,East,90,0.0,2.0,83,0.00,,,0.00,meteohub,2013-10-30 01:42:00,
2013-10-29 19:47:00,31.5,27.0,31.57,SE,135,0.0,2.0,83,0.00,,,0.00,meteohub,2013-10-30 01:47:00,
2013-10-29 19:52:00,31.5,27.0,31.57,SE,135,1.0,2.0,83,0.00,,,0.00,meteohub,2013-10-30 01:52:00,
2013-10-29 19:57:00,31.6,27.1,31.56,West,270,3.0,3.0,83,0.00,,,0.00,meteohub,2013-10-30 01:57:00,
2013-10-29 20:02:00,31.6,27.1,31.56,SW,225,2.0,3.0,83,0.00,,,0.00,meteohub,2013-10-30 02:02:00,
2013-10-29 20:07:00,31.6,27.1,31.56,SW,225,2.0,3.0,83,0.00,,,0.00,meteohub,2013-10-30 02:07:00,
2013-10-29 20:12:00,31.5,27.0,31.57,SW,225,2.0,3.0,83,0.00,,,0.00,meteohub,2013-10-30 02:12:00,
2013-10-29 20:17:00,31.5,27.0,31.56,South,180,1.0,2.0,83,0.00,,,0.00,meteohub,2013-10-30 02:17:00,
2013-10-29 20:22:00,31.5,27.1,31.56,SW,225,1.0,3.0,84,0.00,,,0.00,meteohub,2013-10-30 02:22:00,
2013-10-29 20:27:00,31.3,27.0,31.56,South,180,4.0,4.0,84,0.00,,,0.00,meteohub,2013-10-30 02:27:00,
2013-10-29 20:32:00,31.3,27.0,31.55,SE,135,3.0,6.0,84,0.00,,,0.00,meteohub,2013-10-30 02:32:00,
2013-10-29 20:37:00,31.3,27.3,31.55,SE,135,4.0,6.0,85,0.00,,,0.00,meteohub,2013-10-30 02:37:00,
2013-10-29 20:42:00,31.6,27.3,31.55,NE,45,4.0,6.0,84,0.00,,,0.00,meteohub,2013-10-30 02:42:00,
2013-10-29 20:47:00,32.0,27.5,31.55,NW,315,2.0,4.0,83,0.00,,,0.00,meteohub,2013-10-30 02:47:00,
2013-10-29 20:52:00,32.2,27.3,31.55,NE,45,4.0,10.0,82,0.00,,,0.00,meteohub,2013-10-30 02:52:00,
2013-10-29 20:57:00,32.4,27.1,31.55,NE,45,3.0,10.0,81,0.00,,,0.00,meteohub,2013-10-30 02:57:00,
2013-10-29 21:02:00,32.5,27.1,31.55,North,0,4.0,10.0,80,0.00,,,0.00,meteohub,2013-10-30 03:02:00,
2013-10-29 21:07:00,32.7,27.0,31.55,South,180,2.0,7.0,79,0.00,,,0.00,meteohub,2013-10-30 03:07:00,
2013-10-29 21:12:00,32.7,26.6,31.55,NW,315,2.0,7.0,78,0.00,,,0.00,meteohub,2013-10-30 03:12:00,
2013-10-29 21:17:00,32.5,26.4,31.55,SW,225,2.0,7.0,78,0.00,,,0.00,meteohub,2013-10-30 03:17:00,
2013-10-29 21:22:00,32.5,26.4,31.55,SW,225,3.0,7.0,78,0.00,,,0.00,meteohub,2013-10-30 03:22:00,
2013-10-29 21:27:00,32.7,26.2,31.55,WNW,293,4.0,4.0,77,0.00,,,0.00,meteohub,2013-10-30 03:27:00,
2013-10-29 21:32:00,33.1,26.4,31.54,East,90,3.0,7.0,76,0.00,,,0.00,meteohub,2013-10-30 03:32:00,
2013-10-29 21:37:00,33.3,25.5,31.54,East,90,5.0,7.0,73,0.00,,,0.00,meteohub,2013-10-30 03:37:00,
2013-10-29 21:42:00,33.6,24.8,31.54,East,90,13.0,13.0,70,0.00,,,0.00,meteohub,2013-10-30 03:42:00,
2013-10-29 21:47:00,34.2,24.1,31.53,South,180,8.0,13.0,66,0.00,,,0.00,meteohub,2013-10-30 03:47:00,
2013-10-29 21:52:00,34.3,24.1,31.54,ESE,113,6.0,13.0,66,0.00,,,0.00,meteohub,2013-10-30 03:52:00,
2013-10-29 21:57:00,34.3,24.1,31.53,South,180,3.0,13.0,66,0.00,,,0.00,meteohub,2013-10-30 03:57:00,
2013-10-29 22:01:00,34.2,24.1,31.53,South,180,4.0,11.0,66,0.00,,,0.00,meteohub,2013-10-30 04:01:00,
2013-10-29 22:02:00,34.2,24.1,31.53,South,180,4.0,11.0,66,0.00,,,0.00,meteohub,2013-10-30 04:02:00,
2013-10-29 22:03:00,34.2,24.1,31.53,South,180,4.0,11.0,66,0.00,,,0.00,meteohub,2013-10-30 04:03:00,
2013-10-29 22:04:00,34.2,24.1,31.53,South,180,4.0,11.0,66,0.00,,,0.00,meteohub,2013-10-30 04:04:00,
2013-10-29 22:10:00,33.8,25.0,31.53,South,180,11.0,11.0,70,0.00,,,0.00,meteohub,2013-10-30 04:10:00,
2013-10-29 22:15:00,33.4,26.1,31.53,SE,135,14.0,14.0,74,0.00,,,0.00,meteohub,2013-10-30 04:15:00,
2013-10-29 22:20:00,32.7,26.2,31.53,SE,135,21.0,21.0,77,0.00,,,0.00,meteohub,2013-10-30 04:20:00,
2013-10-29 22:25:00,31.8,27.5,31.52,NE,45,21.0,21.0,84,0.00,,,0.00,meteohub,2013-10-30 04:25:00,
2013-10-29 22:30:00,31.3,27.5,31.52,East,90,8.0,21.0,86,0.00,,,0.00,meteohub,2013-10-30 04:30:00,
2013-10-29 22:36:00,30.9,28.0,31.52,East,90,11.0,21.0,89,0.00,,,0.00,meteohub,2013-10-30 04:36:00,
2013-10-29 22:41:00,30.7,28.4,31.52,SE,135,8.0,21.0,91,0.00,,,0.00,meteohub,2013-10-30 04:41:00,
2013-10-29 22:46:00,30.6,28.6,31.51,East,90,13.0,15.0,92,0.00,,,0.00,meteohub,2013-10-30 04:46:00,
2013-10-29 22:51:00,30.6,28.8,31.51,SE,135,11.0,15.0,93,0.00,,,0.00,meteohub,2013-10-30 04:51:00,
2013-10-29 22:56:00,30.6,29.1,31.51,SW,225,11.0,20.0,94,0.00,,,0.00,meteohub,2013-10-30 04:56:00,
2013-10-29 23:01:00,30.6,29.3,31.50,SE,135,6.0,20.0,95,0.00,,,0.00,meteohub,2013-10-30 05:01:00,
2013-10-29 23:07:00,30.6,29.3,31.51,SE,135,11.0,20.0,95,0.00,,,0.00,meteohub,2013-10-30 05:07:00,
2013-10-29 23:12:00,30.4,29.3,31.51,SE,135,11.0,19.0,96,0.00,,,0.00,meteohub,2013-10-30 05:12:00,
2013-10-29 23:17:00,30.4,29.3,31.52,SE,135,3.0,19.0,96,0.00,,,0.00,meteohub,2013-10-30 05:17:00,
2013-10-29 23:22:00,30.4,29.7,31.54,SE,135,4.0,17.0,97,0.00,,,0.00,meteohub,2013-10-30 05:22:00,
2013-10-29 23:27:00,30.4,29.7,31.54,South,180,8.0,17.0,97,0.00,,,0.00,meteohub,2013-10-30 05:27:00,
2013-10-29 23:32:00,29.5,28.9,31.55,WSW,248,9.0,17.0,98,0.00,,,0.00,meteohub,2013-10-30 05:32:00,
2013-10-29 23:37:00,28.8,28.2,31.56,SW,225,8.0,17.0,98,0.00,,,0.00,meteohub,2013-10-30 05:37:00,
2013-10-29 23:42:00,28.6,28.0,31.56,SW,225,3.0,17.0,98,0.00,,,0.00,meteohub,2013-10-30 05:42:00,
2013-10-29 23:47:00,28.4,27.9,31.56,SE,135,3.0,17.0,98,0.00,,,0.00,meteohub,2013-10-30 05:47:00,
2013-10-29 23:52:00,28.2,26.8,31.55,East,90,3.0,8.0,94,0.00,,,0.00,meteohub,2013-10-30 05:52:00,
2013-10-29 23:57:00,28.2,26.8,31.55,SSW,203,4.0,6.0,94,0.00,,,0.00,meteohub,2013-10-30 05:57:00,